sensor_id;sensor_type;location;lat;lon;timestamp;temperature;humidity
19085;DHT22;9675;51.538;6.728;2023-07-20T00:02:04;22.20;99.90
19085;DHT22;9675;51.538;6.728;2023-07-20T00:04:33;22.10;99.90
19085;DHT22;9675;51.538;6.728;2023-07-20T00:07:00;22.10;99.90
19085;DHT22;9675;51.538;6.728;2023-07-20T00:09:27;22.10;99.90
19085;DHT22;9675;51.538;6.728;2023-07-20T00:11:54;22.00;99.90
19085;DHT22;9675;51.538;6.728;2023-07-20T00:14:22;22.10;99.90
19085;DHT22;9675;51.538;6.728;2023-07-20T00:16:50;22.00;99.90
19085;DHT22;9675;51.538;6.728;2023-07-20T00:19:22;22.00;99.90
19085;DHT22;9675;51.538;6.728;2023-07-20T00:21:50;22.00;99.90
19085;DHT22;9675;51.538;6.728;2023-07-20T00:24:17;22.00;99.90
19085;DHT22;9675;51.538;6.728;2023-07-20T00:26:44;22.00;99.90
19085;DHT22;9675;51.538;6.728;2023-07-20T00:29:11;21.90;99.90
19085;DHT22;9675;51.538;6.728;2023-07-20T00:31:38;21.90;99.90
19085;DHT22;9675;51.538;6.728;2023-07-20T00:34:06;21.90;99.90
19085;DHT22;9675;51.538;6.728;2023-07-20T00:36:34;21.90;99.90
19085;DHT22;9675;51.538;6.728;2023-07-20T00:39:01;21.90;99.90
19085;DHT22;9675;51.538;6.728;2023-07-20T00:41:28;21.90;99.90
19085;DHT22;9675;51.538;6.728;2023-07-20T00:43:57;21.80;99.90
19085;DHT22;9675;51.538;6.728;2023-07-20T00:46:24;21.80;99.90
19085;DHT22;9675;51.538;6.728;2023-07-20T00:48:52;21.80;99.90
19085;DHT22;9675;51.538;6.728;2023-07-20T00:51:21;21.80;99.90
19085;DHT22;9675;51.538;6.728;2023-07-20T00:53:51;21.70;99.90
19085;DHT22;9675;51.538;6.728;2023-07-20T00:56:19;21.70;99.90
19085;DHT22;9675;51.538;6.728;2023-07-20T00:58:46;21.70;99.90
19085;DHT22;9675;51.538;6.728;2023-07-20T01:01:13;21.70;99.90
19085;DHT22;9675;51.538;6.728;2023-07-20T01:03:41;21.60;99.90
19085;DHT22;9675;51.538;6.728;2023-07-20T01:06:14;21.60;99.90
19085;DHT22;9675;51.538;6.728;2023-07-20T01:09:11;21.60;99.90
19085;DHT22;9675;51.538;6.728;2023-07-20T01:11:47;21.60;99.90
19085;DHT22;9675;51.538;6.728;2023-07-20T01:14:18;21.60;99.90
19085;DHT22;9675;51.538;6.728;2023-07-20T01:16:46;21.60;99.90
19085;DHT22;9675;51.538;6.728;2023-07-20T01:19:15;21.60;99.90
19085;DHT22;9675;51.538;6.728;2023-07-20T01:21:47;21.60;99.90
19085;DHT22;9675;51.538;6.728;2023-07-20T01:24:45;21.50;99.90
19085;DHT22;9675;51.538;6.728;2023-07-20T01:27:36;21.50;99.90
19085;DHT22;9675;51.538;6.728;2023-07-20T01:30:43;21.50;99.90
19085;DHT22;9675;51.538;6.728;2023-07-20T01:33:19;21.50;99.90
19085;DHT22;9675;51.538;6.728;2023-07-20T01:35:54;21.40;99.90
19085;DHT22;9675;51.538;6.728;2023-07-20T01:38:24;21.40;99.90
19085;DHT22;9675;51.538;6.728;2023-07-20T01:40:52;21.30;99.90
19085;DHT22;9675;51.538;6.728;2023-07-20T01:43:19;21.30;99.90
19085;DHT22;9675;51.538;6.728;2023-07-20T01:45:46;21.30;99.90
19085;DHT22;9675;51.538;6.728;2023-07-20T01:48:13;21.30;99.90
19085;DHT22;9675;51.538;6.728;2023-07-20T01:50:42;21.20;99.90
19085;DHT22;9675;51.538;6.728;2023-07-20T01:53:09;21.20;99.90
19085;DHT22;9675;51.538;6.728;2023-07-20T01:55:36;21.20;99.90
19085;DHT22;9675;51.538;6.728;2023-07-20T01:58:04;21.20;99.90
19085;DHT22;9675;51.538;6.728;2023-07-20T02:00:31;21.20;99.90
19085;DHT22;9675;51.538;6.728;2023-07-20T02:02:59;21.20;99.90
19085;DHT22;9675;51.538;6.728;2023-07-20T02:05:26;21.10;99.90
19085;DHT22;9675;51.538;6.728;2023-07-20T02:07:54;21.10;99.90
19085;DHT22;9675;51.538;6.728;2023-07-20T02:10:21;21.10;99.90
19085;DHT22;9675;51.538;6.728;2023-07-20T02:12:48;21.10;99.90
19085;DHT22;9675;51.538;6.728;2023-07-20T02:15:15;21.10;99.90
19085;DHT22;9675;51.538;6.728;2023-07-20T02:17:42;21.00;99.90
19085;DHT22;9675;51.538;6.728;2023-07-20T02:20:10;21.00;99.90
19085;DHT22;9675;51.538;6.728;2023-07-20T02:22:37;21.00;99.90
19085;DHT22;9675;51.538;6.728;2023-07-20T02:25:07;21.00;99.90
19085;DHT22;9675;51.538;6.728;2023-07-20T02:27:35;20.90;99.90
19085;DHT22;9675;51.538;6.728;2023-07-20T02:30:03;20.90;99.90
19085;DHT22;9675;51.538;6.728;2023-07-20T02:32:32;20.90;99.90
19085;DHT22;9675;51.538;6.728;2023-07-20T02:34:58;20.90;99.90
19085;DHT22;9675;51.538;6.728;2023-07-20T02:37:26;20.80;99.90
19085;DHT22;9675;51.538;6.728;2023-07-20T02:39:52;20.80;99.90
19085;DHT22;9675;51.538;6.728;2023-07-20T02:42:21;20.80;99.90
19085;DHT22;9675;51.538;6.728;2023-07-20T02:44:49;20.80;99.90
19085;DHT22;9675;51.538;6.728;2023-07-20T02:47:16;20.80;99.90
19085;DHT22;9675;51.538;6.728;2023-07-20T02:49:43;20.80;99.90
19085;DHT22;9675;51.538;6.728;2023-07-20T02:52:10;20.80;99.90
19085;DHT22;9675;51.538;6.728;2023-07-20T02:54:37;20.70;99.90
19085;DHT22;9675;51.538;6.728;2023-07-20T02:57:05;20.70;99.90
19085;DHT22;9675;51.538;6.728;2023-07-20T02:59:33;20.70;99.90
19085;DHT22;9675;51.538;6.728;2023-07-20T03:02:00;20.70;99.90
19085;DHT22;9675;51.538;6.728;2023-07-20T03:04:28;20.60;99.90
19085;DHT22;9675;51.538;6.728;2023-07-20T03:06:55;20.60;99.90
19085;DHT22;9675;51.538;6.728;2023-07-20T03:09:22;20.60;99.90
19085;DHT22;9675;51.538;6.728;2023-07-20T03:11:50;20.60;99.90
19085;DHT22;9675;51.538;6.728;2023-07-20T03:14:17;20.50;99.90
19085;DHT22;9675;51.538;6.728;2023-07-20T03:16:45;20.50;99.90
19085;DHT22;9675;51.538;6.728;2023-07-20T03:19:12;20.50;99.90
19085;DHT22;9675;51.538;6.728;2023-07-20T03:21:39;20.50;99.90
19085;DHT22;9675;51.538;6.728;2023-07-20T03:24:06;20.40;99.90
19085;DHT22;9675;51.538;6.728;2023-07-20T03:26:34;20.40;99.90
19085;DHT22;9675;51.538;6.728;2023-07-20T03:29:02;20.40;99.90
19085;DHT22;9675;51.538;6.728;2023-07-20T03:31:32;20.40;99.90
19085;DHT22;9675;51.538;6.728;2023-07-20T03:34:00;20.40;99.90
19085;DHT22;9675;51.538;6.728;2023-07-20T03:36:27;20.30;99.90
19085;DHT22;9675;51.538;6.728;2023-07-20T03:38:54;20.30;99.90
19085;DHT22;9675;51.538;6.728;2023-07-20T03:41:21;20.30;99.90
19085;DHT22;9675;51.538;6.728;2023-07-20T03:43:48;20.30;99.90
19085;DHT22;9675;51.538;6.728;2023-07-20T03:46:15;20.20;99.90
19085;DHT22;9675;51.538;6.728;2023-07-20T03:48:44;20.20;99.90
19085;DHT22;9675;51.538;6.728;2023-07-20T03:51:12;20.20;99.90
19085;DHT22;9675;51.538;6.728;2023-07-20T03:53:39;20.20;99.90
19085;DHT22;9675;51.538;6.728;2023-07-20T03:56:06;20.20;99.90
19085;DHT22;9675;51.538;6.728;2023-07-20T03:58:33;20.20;99.90
19085;DHT22;9675;51.538;6.728;2023-07-20T04:01:00;20.10;99.90
19085;DHT22;9675;51.538;6.728;2023-07-20T04:03:27;20.20;99.90
19085;DHT22;9675;51.538;6.728;2023-07-20T04:05:54;20.20;99.90
19085;DHT22;9675;51.538;6.728;2023-07-20T04:08:23;20.20;99.90
19085;DHT22;9675;51.538;6.728;2023-07-20T04:10:51;20.10;99.90
19085;DHT22;9675;51.538;6.728;2023-07-20T04:13:18;20.10;99.90
19085;DHT22;9675;51.538;6.728;2023-07-20T04:15:45;20.10;99.90
19085;DHT22;9675;51.538;6.728;2023-07-20T04:18:12;20.10;99.90
19085;DHT22;9675;51.538;6.728;2023-07-20T04:20:39;20.10;99.90
19085;DHT22;9675;51.538;6.728;2023-07-20T04:23:06;20.00;99.90
19085;DHT22;9675;51.538;6.728;2023-07-20T04:25:34;20.00;99.90
19085;DHT22;9675;51.538;6.728;2023-07-20T04:28:04;20.00;99.90
19085;DHT22;9675;51.538;6.728;2023-07-20T04:30:34;20.00;99.90
19085;DHT22;9675;51.538;6.728;2023-07-20T04:33:02;20.00;99.90
19085;DHT22;9675;51.538;6.728;2023-07-20T04:35:47;20.00;99.90
19085;DHT22;9675;51.538;6.728;2023-07-20T04:38:15;20.00;99.90
19085;DHT22;9675;51.538;6.728;2023-07-20T04:40:44;20.00;99.90
19085;DHT22;9675;51.538;6.728;2023-07-20T04:43:12;20.00;99.90
19085;DHT22;9675;51.538;6.728;2023-07-20T04:45:39;20.00;99.90
19085;DHT22;9675;51.538;6.728;2023-07-20T04:48:09;20.00;99.90
19085;DHT22;9675;51.538;6.728;2023-07-20T04:50:37;19.90;99.90
19085;DHT22;9675;51.538;6.728;2023-07-20T04:53:04;19.90;99.90
19085;DHT22;9675;51.538;6.728;2023-07-20T04:55:31;19.90;99.90
19085;DHT22;9675;51.538;6.728;2023-07-20T04:58:01;19.90;99.90
19085;DHT22;9675;51.538;6.728;2023-07-20T05:00:28;19.80;99.90
19085;DHT22;9675;51.538;6.728;2023-07-20T05:02:56;19.80;99.90
19085;DHT22;9675;51.538;6.728;2023-07-20T05:05:23;19.80;99.90
19085;DHT22;9675;51.538;6.728;2023-07-20T05:07:50;19.80;99.90
19085;DHT22;9675;51.538;6.728;2023-07-20T05:10:17;19.80;99.90
19085;DHT22;9675;51.538;6.728;2023-07-20T05:12:44;19.80;99.90
19085;DHT22;9675;51.538;6.728;2023-07-20T05:15:13;19.80;99.90
19085;DHT22;9675;51.538;6.728;2023-07-20T05:17:40;19.80;99.90
19085;DHT22;9675;51.538;6.728;2023-07-20T05:20:07;19.80;99.90
19085;DHT22;9675;51.538;6.728;2023-07-20T05:22:38;19.80;99.90
19085;DHT22;9675;51.538;6.728;2023-07-20T05:25:07;19.80;99.90
19085;DHT22;9675;51.538;6.728;2023-07-20T05:27:35;19.80;99.90
19085;DHT22;9675;51.538;6.728;2023-07-20T05:30:04;19.80;99.90
19085;DHT22;9675;51.538;6.728;2023-07-20T05:32:34;19.70;99.90
19085;DHT22;9675;51.538;6.728;2023-07-20T05:35:01;19.80;99.90
19085;DHT22;9675;51.538;6.728;2023-07-20T05:37:28;19.80;99.90
19085;DHT22;9675;51.538;6.728;2023-07-20T05:39:56;19.80;99.90
19085;DHT22;9675;51.538;6.728;2023-07-20T05:42:24;19.70;99.90
19085;DHT22;9675;51.538;6.728;2023-07-20T05:44:51;19.70;99.90
19085;DHT22;9675;51.538;6.728;2023-07-20T05:47:19;19.70;99.90
19085;DHT22;9675;51.538;6.728;2023-07-20T05:49:48;19.70;99.90
19085;DHT22;9675;51.538;6.728;2023-07-20T05:52:15;19.70;99.90
19085;DHT22;9675;51.538;6.728;2023-07-20T05:54:42;19.70;99.90
19085;DHT22;9675;51.538;6.728;2023-07-20T05:57:09;19.70;99.90
19085;DHT22;9675;51.538;6.728;2023-07-20T05:59:36;19.70;99.90
19085;DHT22;9675;51.538;6.728;2023-07-20T06:02:04;19.70;99.90
19085;DHT22;9675;51.538;6.728;2023-07-20T06:04:31;19.70;99.90
19085;DHT22;9675;51.538;6.728;2023-07-20T06:06:59;19.70;99.90
19085;DHT22;9675;51.538;6.728;2023-07-20T06:09:27;19.70;99.90
19085;DHT22;9675;51.538;6.728;2023-07-20T06:11:55;19.70;99.90
19085;DHT22;9675;51.538;6.728;2023-07-20T06:14:22;19.70;99.90
19085;DHT22;9675;51.538;6.728;2023-07-20T06:16:49;19.70;99.90
19085;DHT22;9675;51.538;6.728;2023-07-20T06:19:16;19.70;99.90
19085;DHT22;9675;51.538;6.728;2023-07-20T06:21:43;19.70;99.90
19085;DHT22;9675;51.538;6.728;2023-07-20T06:24:12;19.70;99.90
19085;DHT22;9675;51.538;6.728;2023-07-20T06:26:39;19.70;99.90
19085;DHT22;9675;51.538;6.728;2023-07-20T06:29:07;19.70;99.90
19085;DHT22;9675;51.538;6.728;2023-07-20T06:31:34;19.70;99.90
19085;DHT22;9675;51.538;6.728;2023-07-20T06:34:02;19.70;99.90
19085;DHT22;9675;51.538;6.728;2023-07-20T06:36:29;19.70;99.90
19085;DHT22;9675;51.538;6.728;2023-07-20T06:38:56;19.70;99.90
19085;DHT22;9675;51.538;6.728;2023-07-20T06:41:25;19.70;99.90
19085;DHT22;9675;51.538;6.728;2023-07-20T06:43:52;19.70;99.90
19085;DHT22;9675;51.538;6.728;2023-07-20T06:46:23;19.70;99.90
19085;DHT22;9675;51.538;6.728;2023-07-20T06:48:51;19.70;99.90
19085;DHT22;9675;51.538;6.728;2023-07-20T06:51:19;19.80;99.90
19085;DHT22;9675;51.538;6.728;2023-07-20T06:53:46;19.80;99.90
19085;DHT22;9675;51.538;6.728;2023-07-20T06:56:13;19.80;99.90
19085;DHT22;9675;51.538;6.728;2023-07-20T06:58:41;19.80;99.90
19085;DHT22;9675;51.538;6.728;2023-07-20T07:01:09;19.90;99.90
19085;DHT22;9675;51.538;6.728;2023-07-20T07:03:36;19.90;99.90
19085;DHT22;9675;51.538;6.728;2023-07-20T07:06:03;20.00;99.90
19085;DHT22;9675;51.538;6.728;2023-07-20T07:08:30;20.00;99.90
19085;DHT22;9675;51.538;6.728;2023-07-20T07:10:57;20.00;99.90
19085;DHT22;9675;51.538;6.728;2023-07-20T07:13:24;20.00;99.90
19085;DHT22;9675;51.538;6.728;2023-07-20T07:15:53;20.10;99.90
19085;DHT22;9675;51.538;6.728;2023-07-20T07:18:20;20.10;99.90
19085;DHT22;9675;51.538;6.728;2023-07-20T07:20:51;20.10;99.90
19085;DHT22;9675;51.538;6.728;2023-07-20T07:23:18;20.10;99.90
19085;DHT22;9675;51.538;6.728;2023-07-20T07:25:46;20.20;99.90
19085;DHT22;9675;51.538;6.728;2023-07-20T07:28:13;20.20;99.90
19085;DHT22;9675;51.538;6.728;2023-07-20T07:30:40;20.20;99.90
19085;DHT22;9675;51.538;6.728;2023-07-20T07:33:09;20.20;99.90
19085;DHT22;9675;51.538;6.728;2023-07-20T07:35:36;20.20;99.90
19085;DHT22;9675;51.538;6.728;2023-07-20T07:38:03;20.30;99.90
19085;DHT22;9675;51.538;6.728;2023-07-20T07:40:30;20.20;99.90
19085;DHT22;9675;51.538;6.728;2023-07-20T07:42:57;20.30;99.90
19085;DHT22;9675;51.538;6.728;2023-07-20T07:45:25;20.30;99.90
19085;DHT22;9675;51.538;6.728;2023-07-20T07:47:52;20.30;99.90
19085;DHT22;9675;51.538;6.728;2023-07-20T07:50:20;20.30;99.90
19085;DHT22;9675;51.538;6.728;2023-07-20T07:52:47;20.40;99.90
19085;DHT22;9675;51.538;6.728;2023-07-20T07:55:14;20.40;99.90
19085;DHT22;9675;51.538;6.728;2023-07-20T07:57:43;20.40;99.90
19085;DHT22;9675;51.538;6.728;2023-07-20T08:00:11;20.40;99.90
19085;DHT22;9675;51.538;6.728;2023-07-20T08:02:40;20.40;99.90
19085;DHT22;9675;51.538;6.728;2023-07-20T08:05:09;20.50;99.90
19085;DHT22;9675;51.538;6.728;2023-07-20T08:07:38;20.50;99.90
19085;DHT22;9675;51.538;6.728;2023-07-20T08:10:06;20.50;99.90
19085;DHT22;9675;51.538;6.728;2023-07-20T08:12:34;20.60;99.90
19085;DHT22;9675;51.538;6.728;2023-07-20T08:15:02;20.60;99.90
19085;DHT22;9675;51.538;6.728;2023-07-20T08:17:29;20.60;99.90
19085;DHT22;9675;51.538;6.728;2023-07-20T08:19:56;20.60;99.90
19085;DHT22;9675;51.538;6.728;2023-07-20T08:22:23;20.60;99.90
19085;DHT22;9675;51.538;6.728;2023-07-20T08:24:51;20.70;99.90
19085;DHT22;9675;51.538;6.728;2023-07-20T08:27:18;20.70;99.90
19085;DHT22;9675;51.538;6.728;2023-07-20T08:29:45;20.70;99.90
19085;DHT22;9675;51.538;6.728;2023-07-20T08:32:12;20.80;99.90
19085;DHT22;9675;51.538;6.728;2023-07-20T08:34:41;20.80;99.90
19085;DHT22;9675;51.538;6.728;2023-07-20T08:37:08;20.80;99.90
19085;DHT22;9675;51.538;6.728;2023-07-20T08:39:36;20.80;99.90
19085;DHT22;9675;51.538;6.728;2023-07-20T08:42:06;20.90;99.90
19085;DHT22;9675;51.538;6.728;2023-07-20T08:44:33;21.00;99.90
19085;DHT22;9675;51.538;6.728;2023-07-20T08:47:02;21.10;99.90
19085;DHT22;9675;51.538;6.728;2023-07-20T08:49:31;21.10;99.90
19085;DHT22;9675;51.538;6.728;2023-07-20T08:51:59;21.20;99.90
19085;DHT22;9675;51.538;6.728;2023-07-20T08:54:29;21.30;99.90
19085;DHT22;9675;51.538;6.728;2023-07-20T08:57:01;21.40;99.90
19085;DHT22;9675;51.538;6.728;2023-07-20T08:59:31;21.50;99.90
19085;DHT22;9675;51.538;6.728;2023-07-20T09:02:02;21.60;99.90
19085;DHT22;9675;51.538;6.728;2023-07-20T09:04:32;21.70;99.90
19085;DHT22;9675;51.538;6.728;2023-07-20T09:06:59;21.70;99.90
19085;DHT22;9675;51.538;6.728;2023-07-20T09:09:27;21.80;99.90
19085;DHT22;9675;51.538;6.728;2023-07-20T09:11:54;21.90;99.90
19085;DHT22;9675;51.538;6.728;2023-07-20T09:14:23;21.90;99.90
19085;DHT22;9675;51.538;6.728;2023-07-20T09:16:53;22.00;99.90
19085;DHT22;9675;51.538;6.728;2023-07-20T09:19:21;22.10;99.90
19085;DHT22;9675;51.538;6.728;2023-07-20T09:21:50;22.20;99.90
19085;DHT22;9675;51.538;6.728;2023-07-20T09:24:19;22.30;99.90
19085;DHT22;9675;51.538;6.728;2023-07-20T09:26:48;22.40;99.90
19085;DHT22;9675;51.538;6.728;2023-07-20T09:29:18;22.50;99.90
19085;DHT22;9675;51.538;6.728;2023-07-20T09:31:59;22.50;99.90
19085;DHT22;9675;51.538;6.728;2023-07-20T09:34:28;22.60;99.90
19085;DHT22;9675;51.538;6.728;2023-07-20T09:36:57;22.70;99.90
19085;DHT22;9675;51.538;6.728;2023-07-20T09:39:24;22.70;99.90
19085;DHT22;9675;51.538;6.728;2023-07-20T09:41:51;22.80;99.90
19085;DHT22;9675;51.538;6.728;2023-07-20T09:44:19;22.90;99.90
19085;DHT22;9675;51.538;6.728;2023-07-20T09:46:47;23.00;99.90
19085;DHT22;9675;51.538;6.728;2023-07-20T09:49:17;23.10;99.90
19085;DHT22;9675;51.538;6.728;2023-07-20T09:51:44;23.20;99.90
19085;DHT22;9675;51.538;6.728;2023-07-20T09:54:13;23.30;99.90
19085;DHT22;9675;51.538;6.728;2023-07-20T09:56:41;23.30;99.90
19085;DHT22;9675;51.538;6.728;2023-07-20T09:59:09;23.50;99.90
19085;DHT22;9675;51.538;6.728;2023-07-20T10:01:37;23.60;99.90
19085;DHT22;9675;51.538;6.728;2023-07-20T10:04:09;23.80;99.90
19085;DHT22;9675;51.538;6.728;2023-07-20T10:06:42;23.80;99.90
19085;DHT22;9675;51.538;6.728;2023-07-20T10:09:15;24.00;99.90
19085;DHT22;9675;51.538;6.728;2023-07-20T10:11:45;24.10;99.90
19085;DHT22;9675;51.538;6.728;2023-07-20T10:14:20;24.20;99.90
19085;DHT22;9675;51.538;6.728;2023-07-20T10:16:50;24.40;99.90
19085;DHT22;9675;51.538;6.728;2023-07-20T10:19:23;24.50;99.90
19085;DHT22;9675;51.538;6.728;2023-07-20T10:21:59;24.60;99.90
19085;DHT22;9675;51.538;6.728;2023-07-20T10:24:31;24.70;99.90
19085;DHT22;9675;51.538;6.728;2023-07-20T10:27:00;24.90;99.90
19085;DHT22;9675;51.538;6.728;2023-07-20T10:29:28;25.00;99.90
19085;DHT22;9675;51.538;6.728;2023-07-20T10:31:56;25.10;99.90
19085;DHT22;9675;51.538;6.728;2023-07-20T10:34:24;25.20;99.90
19085;DHT22;9675;51.538;6.728;2023-07-20T10:36:51;25.30;99.90
19085;DHT22;9675;51.538;6.728;2023-07-20T10:39:24;25.30;99.90
19085;DHT22;9675;51.538;6.728;2023-07-20T10:42:00;25.40;99.90
19085;DHT22;9675;51.538;6.728;2023-07-20T10:44:29;25.50;99.90
19085;DHT22;9675;51.538;6.728;2023-07-20T10:47:00;25.60;99.90
19085;DHT22;9675;51.538;6.728;2023-07-20T10:49:33;25.70;99.90
19085;DHT22;9675;51.538;6.728;2023-07-20T10:52:04;25.80;99.90
19085;DHT22;9675;51.538;6.728;2023-07-20T10:54:47;25.90;99.90
19085;DHT22;9675;51.538;6.728;2023-07-20T10:57:30;26.00;99.90
19085;DHT22;9675;51.538;6.728;2023-07-20T11:00:09;26.10;99.90
19085;DHT22;9675;51.538;6.728;2023-07-20T11:02:45;26.20;99.90
19085;DHT22;9675;51.538;6.728;2023-07-20T11:05:34;26.30;99.90
19085;DHT22;9675;51.538;6.728;2023-07-20T11:08:10;26.50;99.90
19085;DHT22;9675;51.538;6.728;2023-07-20T11:10:39;26.60;99.90
19085;DHT22;9675;51.538;6.728;2023-07-20T11:13:20;26.70;99.90
19085;DHT22;9675;51.538;6.728;2023-07-20T11:16:04;26.90;99.90
19085;DHT22;9675;51.538;6.728;2023-07-20T11:18:34;27.00;99.90
19085;DHT22;9675;51.538;6.728;2023-07-20T11:21:10;27.00;99.90
19085;DHT22;9675;51.538;6.728;2023-07-20T11:23:38;27.00;99.90
19085;DHT22;9675;51.538;6.728;2023-07-20T11:26:08;27.10;99.90
19085;DHT22;9675;51.538;6.728;2023-07-20T11:28:35;27.10;99.90
19085;DHT22;9675;51.538;6.728;2023-07-20T11:31:02;27.20;99.90
19085;DHT22;9675;51.538;6.728;2023-07-20T11:33:29;27.30;99.90
19085;DHT22;9675;51.538;6.728;2023-07-20T11:35:56;27.50;99.90
19085;DHT22;9675;51.538;6.728;2023-07-20T11:38:24;27.60;99.90
19085;DHT22;9675;51.538;6.728;2023-07-20T11:40:51;27.60;99.90
19085;DHT22;9675;51.538;6.728;2023-07-20T11:43:20;27.70;99.90
19085;DHT22;9675;51.538;6.728;2023-07-20T11:45:49;27.80;99.90
19085;DHT22;9675;51.538;6.728;2023-07-20T11:48:17;27.80;99.90
19085;DHT22;9675;51.538;6.728;2023-07-20T11:50:44;27.90;99.90
19085;DHT22;9675;51.538;6.728;2023-07-20T11:53:11;27.90;99.90
19085;DHT22;9675;51.538;6.728;2023-07-20T11:55:39;28.10;99.90
19085;DHT22;9675;51.538;6.728;2023-07-20T11:58:08;28.20;99.90
19085;DHT22;9675;51.538;6.728;2023-07-20T12:00:38;28.20;99.90
19085;DHT22;9675;51.538;6.728;2023-07-20T12:03:06;28.30;99.90
19085;DHT22;9675;51.538;6.728;2023-07-20T12:05:33;28.40;99.90
19085;DHT22;9675;51.538;6.728;2023-07-20T12:08:01;28.40;99.90
19085;DHT22;9675;51.538;6.728;2023-07-20T12:10:28;28.50;99.90
19085;DHT22;9675;51.538;6.728;2023-07-20T12:13:01;28.60;99.90
19085;DHT22;9675;51.538;6.728;2023-07-20T12:15:30;28.70;99.90
19085;DHT22;9675;51.538;6.728;2023-07-20T12:18:00;28.70;99.90
19085;DHT22;9675;51.538;6.728;2023-07-20T12:20:29;28.80;99.90
19085;DHT22;9675;51.538;6.728;2023-07-20T12:22:59;28.90;99.90
19085;DHT22;9675;51.538;6.728;2023-07-20T12:25:37;29.00;99.90
19085;DHT22;9675;51.538;6.728;2023-07-20T12:28:08;29.10;99.90
19085;DHT22;9675;51.538;6.728;2023-07-20T12:30:36;29.20;99.90
19085;DHT22;9675;51.538;6.728;2023-07-20T12:33:05;29.30;99.90
19085;DHT22;9675;51.538;6.728;2023-07-20T12:35:33;29.30;99.90
19085;DHT22;9675;51.538;6.728;2023-07-20T12:38:00;29.30;99.90
19085;DHT22;9675;51.538;6.728;2023-07-20T12:40:28;29.40;99.90
19085;DHT22;9675;51.538;6.728;2023-07-20T12:42:57;29.40;99.90
19085;DHT22;9675;51.538;6.728;2023-07-20T12:45:24;29.40;99.90
19085;DHT22;9675;51.538;6.728;2023-07-20T12:47:51;29.40;99.90
19085;DHT22;9675;51.538;6.728;2023-07-20T12:50:20;29.40;99.90
19085;DHT22;9675;51.538;6.728;2023-07-20T12:52:47;29.40;99.90
19085;DHT22;9675;51.538;6.728;2023-07-20T12:55:14;29.50;99.90
19085;DHT22;9675;51.538;6.728;2023-07-20T12:57:42;29.50;99.90
19085;DHT22;9675;51.538;6.728;2023-07-20T13:00:11;29.50;99.90
19085;DHT22;9675;51.538;6.728;2023-07-20T13:02:38;29.50;99.90
19085;DHT22;9675;51.538;6.728;2023-07-20T13:05:07;29.60;99.90
19085;DHT22;9675;51.538;6.728;2023-07-20T13:07:38;29.60;99.90
19085;DHT22;9675;51.538;6.728;2023-07-20T13:10:06;29.70;99.90
19085;DHT22;9675;51.538;6.728;2023-07-20T13:12:35;29.70;99.90
19085;DHT22;9675;51.538;6.728;2023-07-20T13:15:04;29.70;99.90
19085;DHT22;9675;51.538;6.728;2023-07-20T13:17:34;29.70;99.90
19085;DHT22;9675;51.538;6.728;2023-07-20T13:20:02;29.70;99.90
19085;DHT22;9675;51.538;6.728;2023-07-20T13:22:30;29.80;99.90
19085;DHT22;9675;51.538;6.728;2023-07-20T13:24:58;29.80;99.90
19085;DHT22;9675;51.538;6.728;2023-07-20T13:27:26;29.90;99.90
19085;DHT22;9675;51.538;6.728;2023-07-20T13:29:54;30.00;99.90
19085;DHT22;9675;51.538;6.728;2023-07-20T13:32:21;30.00;99.90
19085;DHT22;9675;51.538;6.728;2023-07-20T13:34:49;30.10;99.90
19085;DHT22;9675;51.538;6.728;2023-07-20T13:37:16;30.20;99.90
19085;DHT22;9675;51.538;6.728;2023-07-20T13:39:43;30.10;99.90
19085;DHT22;9675;51.538;6.728;2023-07-20T13:42:11;30.10;99.90
19085;DHT22;9675;51.538;6.728;2023-07-20T13:44:38;30.10;99.90
19085;DHT22;9675;51.538;6.728;2023-07-20T13:47:06;30.10;99.90
19085;DHT22;9675;51.538;6.728;2023-07-20T13:49:33;30.10;99.90
19085;DHT22;9675;51.538;6.728;2023-07-20T13:52:00;30.10;99.80
19085;DHT22;9675;51.538;6.728;2023-07-20T13:54:27;30.10;99.90
19085;DHT22;9675;51.538;6.728;2023-07-20T13:56:54;30.10;99.90
19085;DHT22;9675;51.538;6.728;2023-07-20T13:59:23;30.20;99.90
19085;DHT22;9675;51.538;6.728;2023-07-20T14:01:50;30.20;99.90
19085;DHT22;9675;51.538;6.728;2023-07-20T14:04:17;30.20;99.70
19085;DHT22;9675;51.538;6.728;2023-07-20T14:06:45;30.20;99.60
19085;DHT22;9675;51.538;6.728;2023-07-20T14:09:12;30.20;99.70
19085;DHT22;9675;51.538;6.728;2023-07-20T14:11:39;30.20;99.70
19085;DHT22;9675;51.538;6.728;2023-07-20T14:14:07;30.20;99.60
19085;DHT22;9675;51.538;6.728;2023-07-20T14:16:35;30.10;99.60
19085;DHT22;9675;51.538;6.728;2023-07-20T14:19:02;30.20;99.40
19085;DHT22;9675;51.538;6.728;2023-07-20T14:21:30;30.20;99.30
19085;DHT22;9675;51.538;6.728;2023-07-20T14:23:58;30.20;99.60
19085;DHT22;9675;51.538;6.728;2023-07-20T14:26:26;30.20;99.60
19085;DHT22;9675;51.538;6.728;2023-07-20T14:28:53;30.20;99.80
19085;DHT22;9675;51.538;6.728;2023-07-20T14:31:20;30.20;99.60
19085;DHT22;9675;51.538;6.728;2023-07-20T14:33:48;30.10;99.50
19085;DHT22;9675;51.538;6.728;2023-07-20T14:36:16;30.10;99.40
19085;DHT22;9675;51.538;6.728;2023-07-20T14:38:45;30.20;99.50
19085;DHT22;9675;51.538;6.728;2023-07-20T14:41:12;30.20;99.50
19085;DHT22;9675;51.538;6.728;2023-07-20T14:43:39;30.20;99.50
19085;DHT22;9675;51.538;6.728;2023-07-20T14:46:06;30.10;99.50
19085;DHT22;9675;51.538;6.728;2023-07-20T14:48:33;30.10;99.40
19085;DHT22;9675;51.538;6.728;2023-07-20T14:51:01;30.00;99.10
19085;DHT22;9675;51.538;6.728;2023-07-20T14:53:28;30.10;98.90
19085;DHT22;9675;51.538;6.728;2023-07-20T14:55:59;30.10;99.00
19085;DHT22;9675;51.538;6.728;2023-07-20T14:58:26;30.10;99.20
19085;DHT22;9675;51.538;6.728;2023-07-20T15:00:53;30.00;99.00
19085;DHT22;9675;51.538;6.728;2023-07-20T15:03:20;30.00;98.80
19085;DHT22;9675;51.538;6.728;2023-07-20T15:05:47;30.00;98.70
19085;DHT22;9675;51.538;6.728;2023-07-20T15:08:17;30.00;98.60
19085;DHT22;9675;51.538;6.728;2023-07-20T15:10:45;29.90;98.60
19085;DHT22;9675;51.538;6.728;2023-07-20T15:13:12;29.80;98.20
19085;DHT22;9675;51.538;6.728;2023-07-20T15:15:40;29.70;98.20
19085;DHT22;9675;51.538;6.728;2023-07-20T15:18:07;29.70;98.30
19085;DHT22;9675;51.538;6.728;2023-07-20T15:20:34;29.60;98.40
19085;DHT22;9675;51.538;6.728;2023-07-20T15:23:01;29.70;98.50
19085;DHT22;9675;51.538;6.728;2023-07-20T15:25:30;29.70;98.40
19085;DHT22;9675;51.538;6.728;2023-07-20T15:27:57;29.80;98.30
19085;DHT22;9675;51.538;6.728;2023-07-20T15:30:24;29.70;98.40
19085;DHT22;9675;51.538;6.728;2023-07-20T15:32:51;29.80;98.60
19085;DHT22;9675;51.538;6.728;2023-07-20T15:35:18;29.80;98.40
19085;DHT22;9675;51.538;6.728;2023-07-20T15:37:45;29.80;98.30
19085;DHT22;9675;51.538;6.728;2023-07-20T15:40:12;29.80;98.20
19085;DHT22;9675;51.538;6.728;2023-07-20T15:42:41;29.80;98.10
19085;DHT22;9675;51.538;6.728;2023-07-20T15:45:09;29.80;98.10
19085;DHT22;9675;51.538;6.728;2023-07-20T15:47:36;29.70;98.10
19085;DHT22;9675;51.538;6.728;2023-07-20T15:50:04;29.70;98.00
19085;DHT22;9675;51.538;6.728;2023-07-20T15:52:32;29.60;97.90
19085;DHT22;9675;51.538;6.728;2023-07-20T15:54:59;29.60;97.90